Time;durP1;ratioP1;P1;durP2;ratioP2;P2;SDS_P1;SDS_P2;PMS_P1;PMS_P2;Temp;Humidity;BMP_temperature;BMP_pressure;BME280_temperature;BME280_humidity;BME280_pressure;Samples;Min_cycle;Max_cycle;Signal;HPM_P1;HPM_P2
2023/01/21 00:01:15;;;;;;;1188.73;469.77;;;-0.70;99.90;;;;;;5033455;28;20052;-86
2023/01/21 00:03:42;;;;;;;1191.07;472.43;;;0.10;99.90;;;;;;5015707;28;20124;-86
2023/01/21 00:06:08;;;;;;;1192.80;474.87;;;-1.10;99.90;;;;;;5015758;28;20045;-86
2023/01/21 00:08:34;;;;;;;1183.40;469.33;;;-0.30;99.90;;;;;;4999225;28;20378;-85
2023/01/21 00:11:14;;;;;;;1165.60;396.50;;;-1.20;99.90;;;;;;5015489;28;20496;-86
2023/01/21 00:13:40;;;;;;;1186.90;465.40;;;0.40;99.90;;;;;;5033274;28;20053;-85
2023/01/21 00:16:07;;;;;;;1175.57;393.90;;;-1.20;99.90;;;;;;5015262;28;20042;-85
2023/01/21 00:18:33;;;;;;;1192.73;473.13;;;-1.70;99.90;;;;;;5014803;28;20049;-87
2023/01/21 00:20:59;;;;;;;1186.33;466.77;;;-1.40;99.90;;;;;;5014904;28;20124;-84
2023/01/21 00:23:25;;;;;;;1160.60;392.63;;;-1.40;99.90;;;;;;5042926;28;20065;-84
2023/01/21 00:26:03;;;;;;;1189.40;473.47;;;-0.50;99.90;;;;;;5052627;28;20051;-86
2023/01/21 00:28:33;;;;;;;1179.57;464.93;;;-1.30;99.90;;;;;;5033267;28;20041;-85
2023/01/21 00:31:03;;;;;;;1183.40;470.17;;;-0.30;99.90;;;;;;5033363;28;20132;-85
2023/01/21 00:33:30;;;;;;;1162.37;394.13;;;-1.50;99.90;;;;;;5044871;28;20055;-85
2023/01/21 00:36:01;;;;;;;1179.27;467.37;;;-0.80;99.90;;;;;;5032929;28;20078;-84
2023/01/21 00:38:27;;;;;;;1160.43;392.73;;;-1.50;99.90;;;;;;5032620;28;20041;-84
2023/01/21 00:40:58;;;;;;;1184.30;470.00;;;-0.40;99.90;;;;;;5016344;28;20444;-84
2023/01/21 00:43:24;;;;;;;1160.37;395.70;;;-1.50;99.90;;;;;;5014965;28;20081;-86
2023/01/21 00:45:49;;;;;;;1177.77;469.47;;;-1.60;99.90;;;;;;5032523;28;20068;-86
2023/01/21 00:48:15;;;;;;;1182.07;471.27;;;-0.70;99.90;;;;;;5032862;28;20045;-85
2023/01/21 00:50:41;;;;;;;1157.30;393.60;;;-1.80;99.90;;;;;;5033553;28;21702;-86
2023/01/21 00:53:06;;;;;;;1158.03;398.67;;;-1.60;99.90;;;;;;5032642;28;20052;-86
2023/01/21 00:55:32;;;;;;;1141.23;384.40;;;-1.80;99.90;;;;;;5032640;28;20400;-86
2023/01/21 00:57:58;;;;;;;1147.13;386.57;;;-1.80;99.90;;;;;;5035875;28;20037;-86
2023/01/21 01:00:23;;;;;;;1147.97;389.97;;;-1.80;99.90;;;;;;5037736;28;20394;-85
2023/01/21 01:02:49;;;;;;;1152.27;463.93;;;-1.80;99.90;;;;;;5019100;28;20500;-84
2023/01/21 01:05:15;;;;;;;1154.93;461.27;;;-1.90;99.90;;;;;;5036509;28;20493;-86
2023/01/21 01:07:42;;;;;;;1148.27;387.20;;;-1.90;99.90;;;;;;5036454;28;20095;-87
2023/01/21 01:10:09;;;;;;;1146.80;383.83;;;-2.00;99.90;;;;;;5018589;28;20037;-85
2023/01/21 01:12:35;;;;;;;1145.63;464.00;;;-1.90;99.90;;;;;;5037667;28;20049;-87
2023/01/21 01:15:00;;;;;;;1143.93;389.23;;;-1.60;99.90;;;;;;5036336;28;20041;-86
2023/01/21 01:17:26;;;;;;;1141.70;396.70;;;-1.90;99.90;;;;;;5036406;28;20103;-86
2023/01/21 01:19:52;;;;;;;1148.43;465.60;;;-2.00;99.90;;;;;;5018557;28;20136;-87
2023/01/21 01:22:17;;;;;;;1151.47;465.20;;;-2.10;99.90;;;;;;5019231;28;20041;-86
2023/01/21 01:24:43;;;;;;;1155.10;464.50;;;-2.00;99.90;;;;;;5018295;28;20081;-86
2023/01/21 01:27:09;;;;;;;1152.97;465.27;;;-2.10;99.90;;;;;;5036034;28;20045;-86
2023/01/21 01:29:34;;;;;;;1145.97;461.87;;;-2.00;99.90;;;;;;5035927;28;20393;-87
2023/01/21 01:32:00;;;;;;;1134.90;390.40;;;-2.10;99.90;;;;;;5017972;28;20128;-86
2023/01/21 01:34:26;;;;;;;1145.83;465.13;;;-2.20;99.90;;;;;;5035927;28;20049;-87
2023/01/21 01:36:51;;;;;;;1148.43;465.50;;;-2.20;99.90;;;;;;5036002;28;20417;-85
2023/01/21 01:39:17;;;;;;;1140.07;393.60;;;-2.30;99.90;;;;;;5035776;28;20515;-87
2023/01/21 01:41:43;;;;;;;1142.77;462.33;;;-2.20;99.90;;;;;;5017693;28;20063;-86
2023/01/21 01:44:46;;;;;;;1128.00;391.67;;;-2.30;99.90;;;;;;5017598;28;20195;-84
2023/01/21 01:47:12;;;;;;;1136.10;462.77;;;-2.20;99.90;;;;;;5035887;28;20092;-87
2023/01/21 01:49:39;;;;;;;1132.37;463.10;;;-2.30;99.90;;;;;;5018201;28;20053;-84
2023/01/21 01:52:07;;;;;;;1125.97;386.90;;;-2.40;99.90;;;;;;5017900;28;20378;-85
2023/01/21 01:54:37;;;;;;;1124.37;389.13;;;-2.30;99.90;;;;;;5035322;28;20128;-85
2023/01/21 01:57:06;;;;;;;1122.33;384.37;;;-2.40;99.90;;;;;;5017375;28;20065;-87
2023/01/21 01:59:32;;;;;;;1121.10;388.63;;;-2.40;99.90;;;;;;5035709;28;20411;-85
2023/01/21 02:02:03;;;;;;;1132.90;462.90;;;-1.30;99.90;;;;;;5035069;28;20042;-87
2023/01/21 02:04:35;;;;;;;1132.90;460.33;;;-2.20;99.90;;;;;;5034977;28;20092;-86
2023/01/21 02:07:02;;;;;;;1124.10;384.83;;;-2.40;99.90;;;;;;5017981;28;20107;-86
2023/01/21 02:09:28;;;;;;;1124.50;460.50;;;-2.40;99.90;;;;;;5035478;28;20410;-85
2023/01/21 02:11:57;;;;;;;1135.40;467.83;;;-2.40;99.90;;;;;;5035205;28;20113;-87
2023/01/21 02:14:22;;;;;;;1130.43;461.57;;;-2.30;99.90;;;;;;5035695;28;20044;-87
2023/01/21 02:17:19;;;;;;;1132.47;467.67;;;-2.60;99.90;;;;;;5016892;28;20481;-88
2023/01/21 02:20:30;;;;;;;1124.50;462.87;;;-2.40;99.90;;;;;;5034978;28;20046;-88
2023/01/21 02:23:01;;;;;;;1113.13;389.13;;;-2.40;99.90;;;;;;4974033;28;20058;-87
2023/01/21 02:25:45;;;;;;;1123.30;466.77;;;-2.40;99.90;;;;;;4973679;28;21125;-86
2023/01/21 02:29:01;;;;;;;1120.20;393.13;;;-2.50;99.90;;;;;;4974102;28;20093;-87
2023/01/21 02:31:54;;;;;;;1118.40;461.73;;;-2.50;99.90;;;;;;4974109;28;20051;-88
2023/01/21 02:34:22;;;;;;;1122.60;392.67;;;-2.50;99.90;;;;;;4957880;28;20065;-87
2023/01/21 02:36:59;;;;;;;1129.67;466.40;;;-2.50;99.90;;;;;;4973517;28;20057;-87
2023/01/21 02:39:59;;;;;;;1127.07;464.67;;;-2.50;99.90;;;;;;4973806;28;20059;-87
2023/01/21 02:42:31;;;;;;;1121.83;459.87;;;-2.50;99.90;;;;;;4972582;28;20054;-88
2023/01/21 02:45:15;;;;;;;1122.67;462.70;;;-2.40;99.90;;;;;;4973817;28;20042;-88
2023/01/21 02:48:10;;;;;;;1113.23;397.57;;;-2.40;99.90;;;;;;4973020;28;20417;-90
2023/01/21 02:50:42;;;;;;;1117.97;462.93;;;-2.40;99.90;;;;;;4973883;28;20046;-87
2023/01/21 02:53:29;;;;;;;1115.17;387.97;;;-2.40;99.90;;;;;;4973652;28;20412;-88
2023/01/21 02:55:59;;;;;;;1124.10;464.73;;;-2.40;99.90;;;;;;4957391;28;20134;-87
2023/01/21 02:58:29;;;;;;;1115.90;392.90;;;-2.40;99.90;;;;;;4962067;28;20046;-87
2023/01/21 03:01:29;;;;;;;1108.47;388.20;;;-2.40;99.90;;;;;;5034246;28;20045;-87
2023/01/21 03:04:03;;;;;;;1116.70;392.77;;;-2.40;99.90;;;;;;5016685;28;20175;-88
2023/01/21 03:06:49;;;;;;;1125.67;466.10;;;-2.40;99.90;;;;;;5034232;28;20048;-87
2023/01/21 03:09:29;;;;;;;1121.17;459.90;;;-2.40;99.90;;;;;;5016287;28;20139;-89
2023/01/21 03:12:11;;;;;;;1108.63;385.77;;;-2.40;99.90;;;;;;5034244;28;20049;-87
2023/01/21 03:17:33;;;;;;;1124.50;467.00;;;-2.40;99.90;;;;;;5014472;28;20093;-85
2023/01/21 03:20:21;;;;;;;1119.90;461.23;;;-2.40;99.90;;;;;;5027008;28;20053;-85
2023/01/21 03:22:50;;;;;;;1125.33;468.73;;;-2.40;99.90;;;;;;5022810;28;20068;-88
2023/01/21 03:25:17;;;;;;;1107.40;387.10;;;-2.30;99.90;;;;;;5052922;28;20040;-85
2023/01/21 03:27:46;;;;;;;1114.17;462.70;;;-2.40;99.90;;;;;;5054039;28;20395;-87
2023/01/21 03:30:16;;;;;;;1111.17;391.17;;;-2.40;99.90;;;;;;5035577;28;20048;-86
2023/01/21 03:32:47;;;;;;;1119.93;397.40;;;-1.30;99.90;;;;;;5053841;28;20071;-88
2023/01/21 03:35:20;;;;;;;1110.87;391.63;;;-2.40;99.90;;;;;;5052574;28;20056;-88
2023/01/21 03:38:07;;;;;;;1110.20;390.30;;;-2.40;99.90;;;;;;5052358;28;20444;-87
2023/01/21 03:40:40;;;;;;;1129.47;470.77;;;-2.40;99.90;;;;;;5052353;28;20140;-87
2023/01/21 03:43:06;;;;;;;1111.57;388.13;;;-1.30;99.90;;;;;;5053673;28;20048;-84
2023/01/21 03:45:46;;;;;;;1116.30;459.37;;;-2.40;99.90;;;;;;5053517;28;20037;-87
2023/01/21 03:48:32;;;;;;;1107.03;389.50;;;-2.40;99.90;;;;;;5053797;28;20049;-87
2023/01/21 03:51:07;;;;;;;1118.68;461.77;;;-0.60;99.90;;;;;;4991772;28;20123;-86
2023/01/21 03:53:33;;;;;;;1115.68;391.08;;;-2.30;99.90;;;;;;4992080;28;20499;-87
2023/01/21 03:55:59;;;;;;;1120.47;463.00;;;-2.30;99.90;;;;;;4991585;28;20522;-86
2023/01/21 03:58:25;;;;;;;1109.73;386.53;;;-2.20;99.90;;;;;;4991693;28;20057;-88
2023/01/21 04:00:51;;;;;;;1114.20;391.17;;;-2.20;99.90;;;;;;4990125;28;20074;-85
2023/01/21 04:03:17;;;;;;;1126.67;463.80;;;-2.20;99.90;;;;;;4991913;28;20589;-88
2023/01/21 04:05:42;;;;;;;1128.07;394.80;;;-2.10;99.90;;;;;;4991797;28;20046;-85
2023/01/21 04:08:08;;;;;;;1115.30;386.13;;;-2.10;99.90;;;;;;4991958;28;20078;-85
2023/01/21 04:10:33;;;;;;;1115.07;390.90;;;-1.10;99.90;;;;;;4986196;28;20047;-87
2023/01/21 04:12:59;;;;;;;1113.00;459.33;;;-2.00;99.90;;;;;;4991764;28;20658;-87
2023/01/21 04:15:25;;;;;;;1119.23;386.57;;;-1.50;99.90;;;;;;4991752;28;20058;-85
2023/01/21 04:17:50;;;;;;;1132.70;464.40;;;-1.90;99.90;;;;;;4991518;28;20081;-85
2023/01/21 04:20:17;;;;;;;1127.40;466.43;;;-1.90;99.90;;;;;;4991421;28;20046;-87
2023/01/21 04:22:43;;;;;;;1129.37;391.73;;;-0.90;99.90;;;;;;4981517;28;20047;-86
2023/01/21 04:25:08;;;;;;;1134.77;463.80;;;-2.10;99.90;;;;;;4952978;29;20163;-84
2023/01/21 04:27:34;;;;;;;1134.33;467.57;;;-1.80;99.90;;;;;;4971533;28;20413;-87
2023/01/21 04:30:00;;;;;;;1139.80;466.47;;;-1.70;99.90;;;;;;5008358;28;20486;-84
2023/01/21 04:32:26;;;;;;;1129.87;388.27;;;-1.10;99.90;;;;;;5031353;28;20056;-87
2023/01/21 04:34:52;;;;;;;1133.60;466.93;;;-1.80;99.90;;;;;;5015054;28;20124;-85
2023/01/21 04:37:17;;;;;;;1136.37;467.83;;;-1.70;99.90;;;;;;5015174;28;20513;-86
2023/01/21 04:39:43;;;;;;;1134.33;396.27;;;-1.80;99.90;;;;;;5032267;28;20045;-85
2023/01/21 04:42:09;;;;;;;1127.57;390.40;;;-1.30;99.90;;;;;;5032560;28;20135;-83
2023/01/21 04:44:34;;;;;;;1138.83;471.77;;;-1.60;99.90;;;;;;5032570;28;20077;-86
2023/01/21 04:47:00;;;;;;;1127.73;395.60;;;-1.60;99.90;;;;;;5032927;28;20405;-85
2023/01/21 04:49:25;;;;;;;1143.10;473.80;;;-0.60;99.90;;;;;;5032652;28;20064;-86
2023/01/21 04:51:51;;;;;;;1128.90;396.30;;;-1.60;99.90;;;;;;5032322;28;20527;-86
2023/01/21 04:54:17;;;;;;;1132.97;395.63;;;-1.90;99.90;;;;;;5032294;28;20038;-85
2023/01/21 04:56:42;;;;;;;1125.60;394.10;;;0.10;99.90;;;;;;5032465;28;20490;-86
2023/01/21 04:59:09;;;;;;;1130.10;468.57;;;-1.60;99.90;;;;;;5032548;28;20482;-86
2023/01/21 05:01:35;;;;;;;1133.40;470.17;;;-0.50;99.90;;;;;;5032054;28;20543;-86
2023/01/21 05:04:00;;;;;;;1128.80;464.77;;;-1.70;99.90;;;;;;5031809;28;20073;-89
2023/01/21 05:06:26;;;;;;;1123.27;391.73;;;-0.30;99.90;;;;;;5032392;28;20136;-85
2023/01/21 05:08:51;;;;;;;1126.00;465.93;;;-0.30;99.90;;;;;;5015022;28;20050;-87
2023/01/21 05:11:18;;;;;;;1129.47;400.77;;;-1.60;99.90;;;;;;5014235;28;20050;-84
2023/01/21 05:13:44;;;;;;;1122.83;395.60;;;-1.70;99.90;;;;;;5032003;28;20056;-85
2023/01/21 05:16:10;;;;;;;1126.90;390.77;;;-0.80;99.90;;;;;;5031997;28;20132;-87
2023/01/21 05:18:39;;;;;;;1135.70;464.33;;;-1.70;99.90;;;;;;5014621;28;20081;-85
2023/01/21 05:21:05;;;;;;;1137.90;467.83;;;-0.30;99.90;;;;;;5032478;28;20500;-86
2023/01/21 05:23:31;;;;;;;1122.37;388.87;;;-1.80;99.90;;;;;;5032481;28;20057;-85
2023/01/21 05:25:57;;;;;;;1142.63;470.70;;;-1.70;99.90;;;;;;5051662;28;20086;-86
2023/01/21 05:28:23;;;;;;;1137.13;469.30;;;-1.80;99.90;;;;;;5052105;28;20500;-87
2023/01/21 05:30:49;;;;;;;1151.17;473.83;;;-1.80;99.90;;;;;;5052238;28;20142;-85
2023/01/21 05:33:14;;;;;;;1142.27;466.07;;;-0.80;99.90;;;;;;5051691;28;20043;-86
2023/01/21 05:35:40;;;;;;;1142.93;471.97;;;-1.90;99.90;;;;;;5051446;28;20045;-86
2023/01/21 05:38:06;;;;;;;1125.70;388.70;;;-1.80;99.90;;;;;;5050807;28;20565;-86
2023/01/21 05:40:31;;;;;;;1144.87;468.70;;;-1.90;99.90;;;;;;5050858;28;20122;-87
2023/01/21 05:42:57;;;;;;;1127.00;389.37;;;-1.90;99.90;;;;;;5052897;28;20697;-85
2023/01/21 05:45:23;;;;;;;1138.13;396.37;;;-1.90;99.90;;;;;;5054722;28;20064;-87
2023/01/21 05:47:48;;;;;;;1134.30;465.47;;;-1.00;99.90;;;;;;5055334;28;20492;-85
2023/01/21 05:50:14;;;;;;;1139.60;465.43;;;-2.00;99.90;;;;;;5055696;28;20052;-86
2023/01/21 05:52:40;;;;;;;1137.90;462.63;;;-2.00;99.90;;;;;;5055358;28;20451;-87
2023/01/21 05:55:06;;;;;;;1141.73;464.03;;;-2.10;99.90;;;;;;5055133;28;20044;-86
2023/01/21 05:57:32;;;;;;;1130.93;387.93;;;-2.10;99.90;;;;;;5055235;28;20068;-89
2023/01/21 05:59:58;;;;;;;1148.23;472.87;;;-2.10;99.90;;;;;;5055019;28;20037;-87
2023/01/21 06:02:24;;;;;;;1134.47;398.43;;;-2.10;99.90;;;;;;5055408;28;20490;-86
2023/01/21 06:04:50;;;;;;;1143.80;473.57;;;-2.20;99.90;;;;;;5053869;28;20053;-86
2023/01/21 06:07:16;;;;;;;1135.03;474.00;;;-1.20;99.90;;;;;;5054820;28;20045;-86
2023/01/21 06:09:41;;;;;;;1122.93;395.50;;;-2.20;99.90;;;;;;5053896;28;20076;-88
2023/01/21 06:12:07;;;;;;;1124.23;466.80;;;-2.30;99.90;;;;;;5054056;28;20044;-88
2023/01/21 06:14:32;;;;;;;1127.63;463.77;;;-2.30;99.90;;;;;;5054807;28;20056;-87
2023/01/21 06:16:58;;;;;;;1122.37;395.27;;;-2.40;99.90;;;;;;5055369;28;20400;-87
2023/01/21 06:19:24;;;;;;;1134.13;469.50;;;-2.50;99.90;;;;;;5054843;28;20484;-87
2023/01/21 06:21:51;;;;;;;1137.70;473.83;;;-2.50;99.90;;;;;;5055379;28;20075;-87
2023/01/21 06:24:17;;;;;;;1138.80;472.03;;;-2.00;99.90;;;;;;5037870;28;20057;-88
2023/01/21 06:26:42;;;;;;;1106.40;390.00;;;-2.60;99.90;;;;;;5034999;28;20405;-87
2023/01/21 06:29:08;;;;;;;1128.33;468.57;;;-2.50;99.90;;;;;;5017048;28;20033;-86
2023/01/21 06:31:33;;;;;;;1119.00;465.43;;;-2.40;99.90;;;;;;5035333;28;20049;-87
2023/01/21 06:33:59;;;;;;;1128.67;463.33;;;-2.50;99.90;;;;;;5035198;28;20045;-85
2023/01/21 06:36:25;;;;;;;1116.90;395.03;;;-2.50;99.90;;;;;;5034541;28;20045;-85
2023/01/21 06:38:50;;;;;;;1120.87;398.97;;;-2.50;99.90;;;;;;5034695;28;20128;-87
2023/01/21 06:41:16;;;;;;;1124.10;466.67;;;-2.50;99.90;;;;;;5034617;28;20397;-85
2023/01/21 06:43:41;;;;;;;1114.57;395.87;;;-2.40;99.90;;;;;;5034865;28;20088;-84
2023/01/21 06:46:07;;;;;;;1121.37;464.33;;;-2.40;99.90;;;;;;5034880;28;20045;-86
2023/01/21 06:48:33;;;;;;;1127.97;467.90;;;-1.40;99.90;;;;;;5016276;28;20049;-85
2023/01/21 06:50:59;;;;;;;1112.67;386.23;;;-1.20;99.90;;;;;;5034369;28;20401;-88
2023/01/21 06:53:25;;;;;;;1112.27;391.53;;;-2.40;99.90;;;;;;5034619;28;20079;-87
2023/01/21 06:55:51;;;;;;;1116.30;392.33;;;-2.50;99.90;;;;;;5033675;28;20049;-87
2023/01/21 06:58:16;;;;;;;1121.03;398.00;;;-1.00;99.90;;;;;;5033948;28;20049;-86
2023/01/21 07:00:42;;;;;;;1123.00;397.20;;;-2.40;99.90;;;;;;5034274;28;20037;-87
2023/01/21 07:03:08;;;;;;;1111.77;389.00;;;-2.40;99.90;;;;;;5034794;28;20449;-86
2023/01/21 07:05:33;;;;;;;1117.83;391.20;;;-2.40;99.90;;;;;;5034566;28;20077;-86
2023/01/21 07:07:59;;;;;;;1103.70;383.53;;;-1.50;99.90;;;;;;5034166;28;20113;-86
2023/01/21 07:10:25;;;;;;;1119.67;467.07;;;-2.40;99.90;;;;;;5016677;28;20049;-86
2023/01/21 07:12:51;;;;;;;1113.37;392.03;;;-1.50;99.90;;;;;;5034129;28;20065;-87
2023/01/21 07:15:17;;;;;;;1113.73;391.47;;;-2.40;99.90;;;;;;5034135;28;20053;-86
2023/01/21 07:17:42;;;;;;;1116.23;395.00;;;-2.10;99.90;;;;;;5034141;28;20045;-87
2023/01/21 07:20:11;;;;;;;1120.90;468.07;;;-2.40;99.90;;;;;;5033603;28;20394;-86
2023/01/21 07:22:37;;;;;;;1122.50;462.80;;;-2.40;99.90;;;;;;5037328;28;20049;-85
2023/01/21 07:25:03;;;;;;;1109.93;390.03;;;-2.40;99.90;;;;;;5053816;28;20076;-87
2023/01/21 07:27:29;;;;;;;1121.27;467.67;;;-2.40;99.90;;;;;;5053677;28;20099;-86
2023/01/21 07:29:54;;;;;;;1117.00;465.23;;;-2.40;99.90;;;;;;5024433;28;20076;-86
2023/01/21 07:32:20;;;;;;;1119.03;472.40;;;-2.50;99.90;;;;;;5044804;28;20044;-86
2023/01/21 07:34:46;;;;;;;1108.50;391.87;;;-2.50;99.90;;;;;;5051965;28;20041;-87
2023/01/21 07:37:11;;;;;;;1104.10;391.97;;;-2.50;99.90;;;;;;5053912;28;20045;-86
2023/01/21 07:39:37;;;;;;;1119.27;470.63;;;-2.40;99.90;;;;;;5032499;28;20069;-87
2023/01/21 07:42:03;;;;;;;1110.73;462.77;;;-2.20;99.90;;;;;;5033611;28;20056;-85
2023/01/21 07:44:28;;;;;;;1106.63;391.57;;;-2.50;99.90;;;;;;5034811;28;20051;-86
2023/01/21 07:46:54;;;;;;;1123.27;465.67;;;-2.50;99.90;;;;;;5033462;28;20107;-85
2023/01/21 07:49:20;;;;;;;1120.43;469.73;;;-2.50;99.90;;;;;;5033671;28;20448;-87
2023/01/21 07:51:46;;;;;;;1120.47;466.37;;;-2.50;99.90;;;;;;5046905;28;20072;-85
2023/01/21 07:54:13;;;;;;;1105.47;390.57;;;-1.60;99.90;;;;;;5017151;28;20061;-85
2023/01/21 07:56:39;;;;;;;1111.10;459.30;;;-2.50;99.90;;;;;;5033804;28;20436;-84
2023/01/21 07:59:05;;;;;;;1108.07;388.00;;;-2.60;99.90;;;;;;5033337;28;20053;-82
2023/01/21 08:01:31;;;;;;;1104.27;383.73;;;-1.70;99.90;;;;;;5034240;28;20038;-81
2023/01/21 08:03:57;;;;;;;1117.57;465.27;;;-2.40;99.90;;;;;;5033312;28;20489;-82
2023/01/21 08:06:25;;;;;;;1111.03;392.57;;;-2.40;99.90;;;;;;5034305;28;20045;-82
2023/01/21 08:08:50;;;;;;;1114.37;468.93;;;-2.40;99.90;;;;;;5039859;28;20045;-82
2023/01/21 08:11:16;;;;;;;1117.33;472.90;;;-2.40;99.90;;;;;;5041245;28;20044;-82
2023/01/21 08:13:43;;;;;;;1102.00;387.17;;;-2.30;99.90;;;;;;5033220;28;20458;-81
2023/01/21 08:16:12;;;;;;;1106.87;389.20;;;-2.30;99.90;;;;;;5033876;28;20494;-82
2023/01/21 08:18:38;;;;;;;1110.57;390.30;;;-2.30;99.90;;;;;;5015501;28;20087;-81
2023/01/21 08:21:04;;;;;;;1125.30;471.23;;;-2.20;99.90;;;;;;5046434;28;20132;-82
2023/01/21 08:23:30;;;;;;;1112.23;397.43;;;-2.20;99.90;;;;;;5036953;28;20131;-82
2023/01/21 08:26:00;;;;;;;1106.90;390.17;;;-2.10;99.90;;;;;;5070314;28;20049;-82
2023/01/21 08:28:26;;;;;;;1109.60;395.43;;;-2.10;99.90;;;;;;5051272;28;20459;-82
2023/01/21 08:30:52;;;;;;;1126.47;405.47;;;-2.10;99.90;;;;;;5052515;28;20073;-82
2023/01/21 08:33:17;;;;;;;1128.23;472.43;;;-2.00;99.90;;;;;;5051332;28;20362;-82
2023/01/21 08:35:43;;;;;;;1118.67;465.77;;;-2.00;99.90;;;;;;5052767;28;20497;-82
2023/01/21 08:38:09;;;;;;;1126.03;465.10;;;-2.00;99.90;;;;;;5052313;28;20040;-82
2023/01/21 08:40:34;;;;;;;1126.97;401.20;;;-2.00;99.90;;;;;;5052573;28;20052;-82
2023/01/21 08:43:01;;;;;;;1132.10;471.13;;;-1.90;99.90;;;;;;5052469;28;20045;-82
2023/01/21 08:45:28;;;;;;;1131.83;467.63;;;-1.90;99.90;;;;;;5052293;28;20051;-82
2023/01/21 08:47:54;;;;;;;1122.13;464.30;;;-1.90;99.90;;;;;;5051949;28;20120;-89
2023/01/21 08:50:20;;;;;;;1119.20;393.03;;;-1.80;99.90;;;;;;5052812;28;20128;-84
2023/01/21 08:52:52;;;;;;;1128.17;401.03;;;-1.40;99.90;;;;;;5050561;28;20068;-82
2023/01/21 08:55:19;;;;;;;1124.40;394.10;;;-1.80;99.90;;;;;;5050668;28;20075;-85
2023/01/21 08:57:45;;;;;;;1126.23;391.00;;;-1.70;99.90;;;;;;5052382;28;20382;-82
2023/01/21 09:00:13;;;;;;;1135.43;465.10;;;-1.70;99.90;;;;;;5051638;28;20120;-80
2023/01/21 09:02:38;;;;;;;1126.40;390.43;;;-1.70;99.90;;;;;;5018627;28;20045;-86
2023/01/21 09:05:05;;;;;;;1126.60;395.03;;;-1.60;99.90;;;;;;5052535;28;20044;-83
2023/01/21 09:07:30;;;;;;;1126.07;388.43;;;-1.70;99.90;;;;;;5051911;28;20033;-83
2023/01/21 09:09:56;;;;;;;1132.60;465.10;;;-1.70;99.90;;;;;;5051395;28;20045;-84
2023/01/21 09:12:22;;;;;;;1132.57;465.47;;;-1.70;99.90;;;;;;5051767;28;20041;-82
2023/01/21 09:14:47;;;;;;;1125.33;391.17;;;-1.80;99.90;;;;;;5052219;28;20415;-81
2023/01/21 09:17:13;;;;;;;1133.60;463.90;;;-1.70;99.90;;;;;;5052435;28;20041;-83
2023/01/21 09:19:39;;;;;;;1135.73;396.83;;;-1.80;99.90;;;;;;5056160;28;20053;-82
2023/01/21 09:22:05;;;;;;;1139.67;466.83;;;-1.80;99.90;;;;;;5055987;28;20064;-82
2023/01/21 09:24:31;;;;;;;1142.43;470.53;;;-1.20;99.90;;;;;;5038519;28;20416;-82
2023/01/21 09:26:56;;;;;;;1130.77;466.80;;;-1.90;99.90;;;;;;5036142;28;20117;-81
2023/01/21 09:29:22;;;;;;;1128.67;388.33;;;-1.90;99.90;;;;;;5035664;28;20119;-83
2023/01/21 09:31:48;;;;;;;1124.50;399.10;;;-1.90;99.90;;;;;;5017990;28;20541;-82
2023/01/21 09:34:13;;;;;;;1135.80;470.50;;;-1.90;99.90;;;;;;5018659;28;20065;-81
2023/01/21 09:36:39;;;;;;;1129.20;396.23;;;-1.90;99.90;;;;;;5036176;28;20041;-80
2023/01/21 09:39:06;;;;;;;1132.67;467.30;;;-1.80;99.90;;;;;;5035432;28;20037;-81
2023/01/21 09:41:34;;;;;;;1122.93;390.33;;;-1.00;99.90;;;;;;5018129;28;20041;-81
2023/01/21 09:44:13;;;;;;;1128.37;389.57;;;-1.60;99.90;;;;;;5035537;28;20056;-81
2023/01/21 09:46:50;;;;;;;1145.10;471.93;;;-1.50;99.90;;;;;;5020703;28;20059;-81
2023/01/21 09:49:25;;;;;;;1127.33;394.60;;;-1.40;99.90;;;;;;5053011;28;20052;-80
2023/01/21 09:52:21;;;;;;;1134.20;404.73;;;-1.30;99.90;;;;;;5033027;28;20882;-82
2023/01/21 09:54:46;;;;;;;1127.43;398.63;;;-1.20;99.90;;;;;;5035574;28;20445;-82
2023/01/21 09:57:15;;;;;;;1136.43;400.10;;;-1.10;99.90;;;;;;5035491;28;20083;-82
2023/01/21 09:59:44;;;;;;;1140.87;467.00;;;-1.00;99.90;;;;;;5035173;28;20053;-81
2023/01/21 10:02:32;;;;;;;1142.10;402.67;;;-0.80;99.90;;;;;;5034524;28;20545;-82
2023/01/21 10:05:06;;;;;;;1149.93;476.73;;;0.00;99.90;;;;;;5035259;28;20080;-81
2023/01/21 10:07:43;;;;;;;1146.27;398.63;;;-0.50;99.90;;;;;;5035181;28;20037;-81
2023/01/21 10:10:24;;;;;;;1145.10;399.03;;;-0.40;99.90;;;;;;5035661;28;20048;-84
2023/01/21 10:13:01;;;;;;;1163.83;474.53;;;-0.30;99.90;;;;;;5017130;28;20125;-83
2023/01/21 10:15:34;;;;;;;1162.07;465.13;;;-0.10;99.90;;;;;;5035416;28;20458;-81
2023/01/21 10:18:08;;;;;;;1152.33;399.40;;;0.00;99.90;;;;;;5035216;28;20049;-82
2023/01/21 10:20:43;;;;;;;1174.17;474.10;;;0.10;99.90;;;;;;5035380;28;20095;-84
2023/01/21 10:23:33;;;;;;;1179.40;475.03;;;1.50;99.90;;;;;;5034543;28;20390;-81
2023/01/21 10:26:07;;;;;;;1167.13;401.73;;;0.50;99.90;;;;;;5034943;28;20129;-82
2023/01/21 10:28:33;;;;;;;1161.70;402.33;;;0.40;99.90;;;;;;5033801;28;20432;-81
2023/01/21 10:31:06;;;;;;;1166.87;403.50;;;0.50;99.90;;;;;;5034200;28;20111;-81
2023/01/21 10:33:32;;;;;;;1168.67;399.63;;;0.70;99.90;;;;;;5034243;28;20037;-81
2023/01/21 10:36:10;;;;;;;1192.27;475.00;;;0.80;99.90;;;;;;4998026;28;20390;-81
2023/01/21 10:38:44;;;;;;;1191.27;475.30;;;1.00;99.90;;;;;;5018787;28;20413;-81
2023/01/21 10:41:48;;;;;;;1196.17;475.07;;;1.20;99.90;;;;;;5034930;28;20403;-81
2023/01/21 10:44:28;;;;;;;1188.80;410.37;;;1.40;99.90;;;;;;5015103;28;20046;-81
2023/01/21 10:47:21;;;;;;;1208.63;480.80;;;1.50;99.90;;;;;;5015178;28;20069;-82
2023/01/21 10:49:51;;;;;;;1212.30;480.90;;;1.70;99.90;;;;;;5014889;28;20054;-81
2023/01/21 10:52:29;;;;;;;1204.00;419.97;;;1.80;99.90;;;;;;5022883;28;20037;-82
2023/01/21 10:55:20;;;;;;;1221.63;482.20;;;1.90;99.90;;;;;;5034609;28;20056;-82
2023/01/21 10:57:59;;;;;;;1221.43;485.17;;;2.00;99.90;;;;;;5034452;28;20048;-82
2023/01/21 11:00:29;;;;;;;1204.00;415.20;;;2.20;99.90;;;;;;5034308;28;20068;-82
2023/01/21 11:03:03;;;;;;;1204.93;414.03;;;2.20;99.90;;;;;;5034501;28;20038;-84
2023/01/21 11:05:29;;;;;;;1237.80;482.37;;;2.30;99.90;;;;;;5016768;28;20045;-81
2023/01/21 11:07:57;;;;;;;1247.67;488.80;;;2.40;99.90;;;;;;5034211;28;20374;-82
2023/01/21 11:10:25;;;;;;;1251.60;485.77;;;2.40;99.90;;;;;;5016408;28;20158;-82
2023/01/21 11:12:54;;;;;;;1229.00;425.80;;;2.50;99.90;;;;;;5034052;28;20045;-81
2023/01/21 11:15:21;;;;;;;1235.57;427.10;;;2.50;99.90;;;;;;5034441;28;20052;-82
2023/01/21 11:17:49;;;;;;;1236.57;425.33;;;2.60;99.90;;;;;;5034206;28;20115;-81
2023/01/21 11:20:15;;;;;;;1233.53;420.83;;;2.60;99.90;;;;;;5034237;28;20099;-81
2023/01/21 11:22:45;;;;;;;1263.63;489.53;;;2.70;99.90;;;;;;5035956;28;20053;-82
2023/01/21 11:25:30;;;;;;;1269.43;493.50;;;2.70;99.90;;;;;;5053957;28;20453;-81
2023/01/21 11:27:55;;;;;;;1245.55;425.20;;;2.80;99.90;;;;;;5036083;28;20052;-81
2023/01/21 11:30:36;;;;;;;1278.23;491.27;;;2.80;99.90;;;;;;5053624;28;20052;-82
2023/01/21 11:33:22;;;;;;;1242.87;424.93;;;2.90;99.90;;;;;;5053972;28;20055;-82
2023/01/21 11:35:48;;;;;;;1273.53;488.65;;;2.90;99.90;;;;;;5053495;28;20076;-82
2023/01/21 11:38:28;;;;;;;1273.30;488.57;;;2.90;99.90;;;;;;5053606;28;20084;-82
2023/01/21 11:41:14;;;;;;;1268.17;490.40;;;3.00;99.90;;;;;;5053279;28;20052;-82
2023/01/21 11:43:45;;;;;;;1280.43;495.30;;;3.00;99.90;;;;;;5053494;28;20531;-82
2023/01/21 11:46:33;;;;;;;1245.80;420.53;;;3.10;99.90;;;;;;5053444;28;20494;-82
2023/01/21 11:49:08;;;;;;;1248.73;421.07;;;3.10;99.90;;;;;;5035617;28;20128;-82
2023/01/21 11:51:38;;;;;;;1278.90;491.50;;;3.70;99.90;;;;;;5053507;28;20371;-82
2023/01/21 11:54:18;;;;;;;1271.23;487.30;;;3.10;99.90;;;;;;5053374;28;20037;-82
2023/01/21 11:56:52;;;;;;;1269.47;490.50;;;3.50;99.90;;;;;;5049100;28;20044;-81
2023/01/21 11:59:34;;;;;;;1242.67;423.17;;;3.20;99.90;;;;;;5053064;28;20044;-81
2023/01/21 12:02:17;;;;;;;1270.23;490.13;;;3.30;99.90;;;;;;5048310;28;20049;-85
2023/01/21 12:04:49;;;;;;;1279.60;494.97;;;3.40;99.90;;;;;;5052984;28;20032;-84
2023/01/21 12:07:27;;;;;;;1286.63;492.53;;;3.40;99.90;;;;;;5053186;28;20154;-84
2023/01/21 12:10:08;;;;;;;1245.77;424.43;;;3.50;99.90;;;;;;5052994;28;20091;-83
2023/01/21 12:12:51;;;;;;;1275.53;495.07;;;3.50;99.90;;;;;;5052904;28;20044;-83
2023/01/21 12:15:29;;;;;;;1291.13;494.53;;;3.50;99.90;;;;;;5053045;28;20103;-83
2023/01/21 12:18:22;;;;;;;1253.03;428.30;;;3.60;99.90;;;;;;5051905;28;20053;-86